createdAt,value
2023-09-05T00:03:19.918Z,4.43
2023-09-05T00:08:28.040Z,5.75
2023-09-05T00:13:34.450Z,3.45
2023-09-05T00:18:40.756Z,2.53
2023-09-05T00:23:48.981Z,6.35
2023-09-05T00:28:55.413Z,3.47
2023-09-05T00:34:01.624Z,4.47
2023-09-05T00:39:10.588Z,4.03
2023-09-05T00:49:28.958Z,5.03
2023-09-05T00:54:38.568Z,5.78
2023-09-05T00:59:45.905Z,7.35
2023-09-05T01:04:52.570Z,3.35
2023-09-05T01:10:07.934Z,3.13
2023-09-05T01:15:14.279Z,4.55
2023-09-05T01:20:21.404Z,4.60
2023-09-05T01:25:30.543Z,4.68
2023-09-05T01:30:37.390Z,4.20
2023-09-05T01:35:43.625Z,3.08
2023-09-05T01:40:51.402Z,4.03
2023-09-05T01:45:57.741Z,3.83
2023-09-05T01:51:05.191Z,5.32
2023-09-05T01:56:13.034Z,8.02
2023-09-05T02:01:19.963Z,4.88
2023-09-05T02:06:26.431Z,2.53
2023-09-05T02:11:34.223Z,3.83
2023-09-05T02:16:40.653Z,4.30
2023-09-05T02:21:47.381Z,5.93
2023-09-05T02:26:57.575Z,5.13
2023-09-05T02:32:03.881Z,5.38
2023-09-05T02:37:10.266Z,2.80
2023-09-05T02:42:18.201Z,5.18
2023-09-05T02:47:24.776Z,5.10
2023-09-05T02:52:45.452Z,4.55
2023-09-05T02:57:55.712Z,5.47
2023-09-05T03:03:02.345Z,6.30
2023-09-05T03:08:08.821Z,6.47
2023-09-05T03:13:17.152Z,6.60
2023-09-05T03:18:24.040Z,6.18
2023-09-05T03:23:30.680Z,5.68
2023-09-05T03:28:46.982Z,4.18
2023-09-05T03:33:57.588Z,6.45
2023-09-05T03:39:04.496Z,6.28
2023-09-05T03:44:12.606Z,4.85
2023-09-05T03:49:19.402Z,6.85
2023-09-05T03:54:25.675Z,7.30
2023-09-05T03:59:33.789Z,4.60
2023-09-05T04:04:40.905Z,5.18
2023-09-05T04:09:50.852Z,6.53
2023-09-05T04:14:58.892Z,4.43
2023-09-05T04:20:08.109Z,5.23
2023-09-05T04:25:16.731Z,5.82
2023-09-05T04:30:24.517Z,4.55
2023-09-05T04:35:31.030Z,6.22
2023-09-05T04:40:38.413Z,6.80
2023-09-05T04:45:56.232Z,5.55
2023-09-05T04:51:05.667Z,4.40
2023-09-05T04:56:12.582Z,4.93
2023-09-05T05:01:20.515Z,5.53
2023-09-05T05:06:30.452Z,4.23
2023-09-05T05:11:37.089Z,6.30
2023-09-05T05:16:45.343Z,4.35
2023-09-05T05:21:52.191Z,5.03
2023-09-05T05:26:58.710Z,5.55
2023-09-05T05:32:07.491Z,6.53
2023-09-05T05:42:20.225Z,13.45
2023-09-05T05:47:28.570Z,13.70
2023-09-05T05:52:35.594Z,10.57
2023-09-05T05:57:42.060Z,6.97
2023-09-05T06:02:49.881Z,7.10
2023-09-05T06:07:57.739Z,8.30
2023-09-05T06:13:04.749Z,5.07
2023-09-05T06:18:13.138Z,5.68
2023-09-05T06:23:19.978Z,6.32
2023-09-05T06:28:27.485Z,7.22
2023-09-05T06:33:35.993Z,6.65
2023-09-05T06:38:43.355Z,5.85
2023-09-05T06:43:50.209Z,5.82
2023-09-05T06:48:58.416Z,7.25
2023-09-05T06:54:05.256Z,6.07
2023-09-05T06:59:18.819Z,4.35
2023-09-05T07:04:28.907Z,4.35
2023-09-05T07:09:35.669Z,7.30
2023-09-05T07:14:44.020Z,6.70
2023-09-05T07:19:52.973Z,5.32
2023-09-05T07:24:59.352Z,5.43
2023-09-05T07:30:06.985Z,4.25
2023-09-05T07:35:15.112Z,4.45
2023-09-05T07:40:24.204Z,3.37
2023-09-05T07:45:30.877Z,3.70
2023-09-05T07:50:39.636Z,8.32
2023-09-05T07:55:46.401Z,4.03
2023-09-05T08:00:54.592Z,5.50
2023-09-05T08:06:02.761Z,3.80
2023-09-05T08:11:09.539Z,5.43
2023-09-05T08:16:16.893Z,4.60
2023-09-05T08:21:28.053Z,5.40
2023-09-05T08:26:36.048Z,4.22
2023-09-05T08:31:42.735Z,5.63
2023-09-05T08:36:50.747Z,5.03
2023-09-05T08:41:57.806Z,4.57
2023-09-05T08:47:04.556Z,5.35
2023-09-05T08:52:18.246Z,5.70
2023-09-05T08:57:29.638Z,4.63
2023-09-05T09:02:37.864Z,4.85
2023-09-05T09:07:46.377Z,6.97
2023-09-05T09:12:56.952Z,2.47
2023-09-05T09:18:04.634Z,5.25
2023-09-05T09:23:12.790Z,3.40
2023-09-05T09:28:28.318Z,3.92
2023-09-05T09:33:36.952Z,4.75
2023-09-05T09:38:45.502Z,4.40
2023-09-05T09:43:58.169Z,4.70
2023-09-05T09:49:08.541Z,7.35
2023-09-05T09:54:18.904Z,4.82
2023-09-05T09:59:28.691Z,6.60
2023-09-05T10:04:37.719Z,5.20
2023-09-05T10:09:47.592Z,4.90
2023-09-05T10:14:57.415Z,3.17
2023-09-05T10:20:09.370Z,3.53
2023-09-05T10:25:19.554Z,3.85
2023-09-05T10:30:26.282Z,3.40
2023-09-05T10:35:34.994Z,4.10
2023-09-05T10:40:43.322Z,6.00
2023-09-05T10:45:58.263Z,6.22
2023-09-05T10:51:13.553Z,6.70
2023-09-05T10:56:45.449Z,6.53
2023-09-05T11:01:54.404Z,4.50
2023-09-05T11:07:11.005Z,5.32
2023-09-05T11:12:21.513Z,2.63
2023-09-05T11:17:30.102Z,4.07
2023-09-05T11:27:43.732Z,3.47
2023-09-05T11:32:51.370Z,4.00
2023-09-05T11:38:04.229Z,3.05
2023-09-05T11:43:15.435Z,5.05
2023-09-05T11:48:24.803Z,4.55
2023-09-05T11:53:31.626Z,2.63
2023-09-05T11:58:39.897Z,4.97
2023-09-05T12:03:46.356Z,2.25
2023-09-05T12:08:54.448Z,2.78
2023-09-05T12:14:02.555Z,2.88
2023-09-05T12:19:09.926Z,3.47
2023-09-05T12:24:24.739Z,3.38
2023-09-05T12:29:50.944Z,3.53
2023-09-05T12:34:57.739Z,3.58
2023-09-05T12:40:06.860Z,2.53
2023-09-05T12:45:16.396Z,2.42
2023-09-05T12:50:31.572Z,2.25
2023-09-05T12:55:39.106Z,2.60
2023-09-05T13:00:48.642Z,3.17
2023-09-05T13:05:55.132Z,3.25
2023-09-05T13:11:01.399Z,2.75
2023-09-05T13:16:09.378Z,3.67
2023-09-05T13:21:16.930Z,5.40
2023-09-05T13:26:23.357Z,3.22
2023-09-05T13:31:31.862Z,3.30
2023-09-05T13:36:39.329Z,4.80
2023-09-05T13:41:45.989Z,3.47
2023-09-05T13:46:54.360Z,3.65
2023-09-05T13:52:01.803Z,2.95
2023-09-05T13:57:09.073Z,4.85
2023-09-05T14:02:17.030Z,2.05
2023-09-05T14:07:23.454Z,11.87
2023-09-05T14:12:30.358Z,4.88
2023-09-05T14:17:38.718Z,2.63
2023-09-05T14:22:45.427Z,3.17
2023-09-05T14:27:52.954Z,3.38
2023-09-05T14:33:02.025Z,2.55
2023-09-05T14:38:08.666Z,2.90
2023-09-05T14:43:17.055Z,3.67
2023-09-05T14:48:26.019Z,3.95
2023-09-05T14:53:33.562Z,4.05
2023-09-05T14:58:41.470Z,3.45
2023-09-05T15:03:49.918Z,3.17
2023-09-05T15:08:57.029Z,4.13
2023-09-05T15:14:03.703Z,3.30
2023-09-05T15:19:11.986Z,4.03
2023-09-05T15:24:18.621Z,4.85
2023-09-05T15:29:25.275Z,3.30
2023-09-05T15:34:35.521Z,3.08
2023-09-05T15:39:42.960Z,2.33
2023-09-05T15:44:49.694Z,2.88
2023-09-05T15:49:57.892Z,3.15
2023-09-05T15:55:04.298Z,4.07
2023-09-05T16:00:12.568Z,4.70
2023-09-05T16:05:20.893Z,4.35
2023-09-05T16:10:28.441Z,4.63
2023-09-05T16:15:35.019Z,3.40
2023-09-05T16:20:55.364Z,4.20
2023-09-05T16:26:03.336Z,8.35
2023-09-05T16:31:11.443Z,3.88
2023-09-05T16:36:23.079Z,3.65
2023-09-05T16:41:31.508Z,3.33
2023-09-05T16:46:38.697Z,3.28
2023-09-05T16:51:47.283Z,4.70
2023-09-05T16:56:54.364Z,7.72
2023-09-05T17:02:02.599Z,4.88
2023-09-05T17:07:11.393Z,5.88
2023-09-05T17:12:18.372Z,5.57
2023-09-05T17:17:26.061Z,4.53
2023-09-05T17:22:34.865Z,6.32
2023-09-05T17:27:45.892Z,4.05
2023-09-05T17:32:53.767Z,8.90
2023-09-05T17:38:02.726Z,6.97
2023-09-05T17:48:20.221Z,5.88
2023-09-05T17:53:31.948Z,5.78
2023-09-05T17:58:41.026Z,5.72
2023-09-05T18:09:01.915Z,7.57
2023-09-05T18:14:13.919Z,8.02
2023-09-05T18:19:22.700Z,7.18
2023-09-05T18:24:34.017Z,12.88
2023-09-05T18:29:48.139Z,19.48
2023-09-05T18:35:02.043Z,20.65
2023-09-05T18:40:17.931Z,37.08
2023-09-05T18:45:31.897Z,45.00
2023-09-05T18:50:42.594Z,38.58
2023-09-05T18:55:53.959Z,24.20
2023-09-05T19:01:04.003Z,26.63
2023-09-05T19:06:15.414Z,20.52
2023-09-05T19:11:26.750Z,25.70
2023-09-05T19:16:34.613Z,21.23
2023-09-05T19:21:43.440Z,21.38
2023-09-05T19:26:56.687Z,17.65
2023-09-05T19:32:06.031Z,19.75
2023-09-05T19:37:17.198Z,18.80
2023-09-05T19:42:28.197Z,21.85
2023-09-05T19:47:39.049Z,13.73
2023-09-05T19:52:47.886Z,13.07
2023-09-05T19:57:59.268Z,17.10
2023-09-05T20:03:10.387Z,9.75
2023-09-05T20:08:19.156Z,12.40
2023-09-05T20:13:29.721Z,10.50
2023-09-05T20:18:39.432Z,16.15
2023-09-05T20:23:47.537Z,13.75
2023-09-05T20:28:57.289Z,11.73
2023-09-05T20:34:05.663Z,12.68
2023-09-05T20:39:13.425Z,12.75
2023-09-05T20:44:25.286Z,11.57
2023-09-05T20:49:34.401Z,18.05
2023-09-05T20:54:42.617Z,15.45
2023-09-05T20:59:54.089Z,15.27
2023-09-05T21:05:00.979Z,14.98
2023-09-05T21:10:10.402Z,20.40
2023-09-05T21:15:18.837Z,11.20
2023-09-05T21:20:25.212Z,10.87
2023-09-05T21:25:31.926Z,11.55
2023-09-05T21:30:40.145Z,14.60
2023-09-05T21:35:47.207Z,11.68
2023-09-05T21:40:53.884Z,15.85
2023-09-05T21:46:02.070Z,9.10
2023-09-05T21:51:08.911Z,10.00
2023-09-05T21:56:16.755Z,8.50
2023-09-05T22:01:24.944Z,9.82
2023-09-05T22:06:31.591Z,11.03
2023-09-05T22:11:38.411Z,10.65
2023-09-05T22:16:46.706Z,9.48
2023-09-05T22:21:53.335Z,6.77
2023-09-05T22:27:01.771Z,8.23
2023-09-05T22:32:09.879Z,8.30
2023-09-05T22:37:16.218Z,9.90
2023-09-05T22:42:23.020Z,7.93
2023-09-05T22:47:31.206Z,10.57
2023-09-05T22:52:38.170Z,14.93
2023-09-05T22:57:44.819Z,7.65
2023-09-05T23:02:53.175Z,14.23
2023-09-05T23:08:00.082Z,8.93
2023-09-05T23:13:06.889Z,9.30
2023-09-05T23:18:14.842Z,5.07
2023-09-05T23:23:22.051Z,5.83
2023-09-05T23:28:29.871Z,6.30
2023-09-05T23:33:38.340Z,15.37
2023-09-05T23:38:45.286Z,6.50
2023-09-05T23:43:51.859Z,7.05
2023-09-05T23:49:01.953Z,5.07
2023-09-05T23:54:08.962Z,3.40
2023-09-05T23:59:16.857Z,5.68
